Change the Weather History Date:

Sunday, August 18, 2013

  Actual Average Record
Temperature  
Mean Temperature 70 °F -  
Max Temperature 80 °F 86 °F 100 °F (1955)
Min Temperature 60 °F 61 °F 46 °F (2002)
Cooling Degree Days 5    
Growing Degree Days 20 (Base 50)    
Moisture  
Dew Point 60 °F    
Average Humidity 69    
Maximum Humidity 83    
Minimum Humidity 54    
Precipitation  
Precipitation 0.00 in - - ()
Sea Level Pressure  
Sea Level Pressure 30.06 in    
Wind  
Wind Speed 10 mph (SSE)    
Max Wind Speed 21 mph    
Max Gust Speed 29 mph    
Visibility 10 miles    
Events      
Averages and records for this station are not official NWS values.
T = Trace of Precipitation, MM = Missing Value Source: NWS Daily Summary

Daily Weather History Graph

Daily Weather History Graph

Search for Another Location

Airport or City:

Trip Planner

Search our weather history database for the weather conditions in past years. The results will help you decide how hot, cold, wet, or windy it might be!

Date:

Astronomy

Aug. 18, 2013 Rise Set
Actual Time 6:39 AM CDT 8:26 PM CDT
Civil Twilight 6:08 AM CDT 8:56 PM CDT
Nautical Twilight 5:31 AM CDT 9:33 PM CDT
Astronomical Twilight 4:52 AM CDT 10:13 PM CDT
Moon 6:35 PM CDT (8/18) 3:47 AM CDT (8/18)
Length of Visible Light 14h 48m
Length of Day
13h 47m
Waxing Gibbous, 92% of the Moon is Illuminated
Aug 18
Waxing Gibbous
Aug 20
Full
Aug 28
Last Quarter
Sep 5
New
Sep 12
First Quarter

Hourly Weather History & Observations

Time (CDT) Temp. Heat Index Dew Point Humidity Pressure Visibility Wind Dir Wind Speed Gust Speed Precip Events Conditions
12:15 AM 64.4 °F - 57.2 °F 77% 30.10 in 10.0 mi SSE 6.9 mph - N/A   Mostly Cloudy
12:35 AM 64.4 °F - 57.2 °F 77% 30.10 in 10.0 mi SSE 8.1 mph - N/A   Scattered Clouds
12:55 AM 64.4 °F - 57.2 °F 77% 30.10 in 10.0 mi SSE 8.1 mph - N/A   Partly Cloudy
1:15 AM 62.6 °F - 57.2 °F 82% 30.10 in 10.0 mi SSE 6.9 mph - N/A   Partly Cloudy
1:35 AM 64.4 °F - 57.2 °F 77% 30.10 in 10.0 mi SSE 9.2 mph - N/A   Scattered Clouds
1:55 AM 64.4 °F - 57.2 °F 77% 30.10 in 10.0 mi SSE 8.1 mph - N/A   Mostly Cloudy
2:15 AM 64.4 °F - 57.2 °F 77% 30.10 in 10.0 mi South 8.1 mph - N/A   Mostly Cloudy
2:35 AM 64.4 °F - 57.2 °F 77% 30.10 in 10.0 mi SSE 10.4 mph - N/A   Mostly Cloudy
2:55 AM 64.4 °F - 55.4 °F 73% 30.09 in 10.0 mi SSE 10.4 mph - N/A   Scattered Clouds
3:15 AM 64.4 °F - 57.2 °F 77% 30.09 in 10.0 mi South 8.1 mph - N/A   Partly Cloudy
3:35 AM 64.4 °F - 55.4 °F 73% 30.09 in 10.0 mi South 9.2 mph - N/A   Mostly Cloudy
3:55 AM 64.4 °F - 55.4 °F 73% 30.09 in 10.0 mi SSE 9.2 mph - N/A   Partly Cloudy
4:15 AM 64.4 °F - 55.4 °F 73% 30.08 in 10.0 mi SSE 9.2 mph - N/A   Partly Cloudy
4:35 AM 64.4 °F - 55.4 °F 73% 30.08 in 10.0 mi SSE 8.1 mph - N/A   Partly Cloudy
4:55 AM 64.4 °F - 55.4 °F 73% 30.09 in 10.0 mi SSE 6.9 mph - N/A   Scattered Clouds
5:15 AM 62.6 °F - 55.4 °F 77% 30.08 in 10.0 mi SSE 6.9 mph - N/A   Partly Cloudy
5:35 AM 62.6 °F - 55.4 °F 77% 30.08 in 10.0 mi SSE 9.2 mph - N/A   Clear
5:55 AM 62.6 °F - 55.4 °F 77% 30.08 in 10.0 mi SSE 6.9 mph - N/A   Clear
6:15 AM 60.8 °F - 55.4 °F 82% 30.08 in 10.0 mi SSE 4.6 mph - N/A   Clear
6:35 AM 60.8 °F - 55.4 °F 82% 30.08 in 10.0 mi SE 6.9 mph - N/A   Clear
6:55 AM 60.8 °F - 55.4 °F 82% 30.09 in 10.0 mi SSE 4.6 mph - N/A   Clear
7:15 AM 60.8 °F - 55.4 °F 82% 30.09 in 10.0 mi SE 5.8 mph - N/A   Clear
7:35 AM 62.6 °F - 55.4 °F 77% 30.09 in 10.0 mi SE 6.9 mph - N/A   Clear
7:55 AM 62.6 °F - 55.4 °F 77% 30.09 in 10.0 mi SE 5.8 mph - N/A   Clear
8:15 AM 62.6 °F - 55.4 °F 77% 30.09 in 10.0 mi SE 6.9 mph - N/A   Clear
8:35 AM 64.4 °F - 57.2 °F 77% 30.09 in 10.0 mi SSE 8.1 mph - N/A   Clear
8:55 AM 66.2 °F - 57.2 °F 73% 30.09 in 10.0 mi SSE 8.1 mph - N/A   Partly Cloudy
9:15 AM 69.8 °F - 57.2 °F 64% 30.09 in 10.0 mi South 12.7 mph - N/A   Clear
9:35 AM 69.8 °F - 57.2 °F 64% 30.09 in 10.0 mi South 12.7 mph - N/A   Clear
9:55 AM 71.6 °F - 57.2 °F 60% 30.09 in 10.0 mi South 17.3 mph - N/A   Clear
10:15 AM 73.4 °F - 57.2 °F 57% 30.08 in 10.0 mi South 13.8 mph 25.3 mph N/A   Clear
10:35 AM 73.4 °F - 57.2 °F 57% 30.08 in 10.0 mi South 19.6 mph 26.5 mph N/A   Clear
10:55 AM 73.4 °F - 57.2 °F 57% 30.08 in 10.0 mi South 16.1 mph 25.3 mph N/A   Clear
11:15 AM 75.2 °F - 59.0 °F 57% 30.07 in 10.0 mi South 17.3 mph 25.3 mph N/A   Clear
11:35 AM 75.2 °F - 59.0 °F 57% 30.07 in 10.0 mi South 18.4 mph 21.9 mph N/A   Clear
11:55 AM 77.0 °F - 60.8 °F 57% 30.07 in 10.0 mi South 18.4 mph 23.0 mph N/A   Clear
12:15 PM 77.0 °F - 59.0 °F 54% 30.06 in 10.0 mi South 18.4 mph 28.8 mph N/A   Clear
12:35 PM 78.8 °F - 60.8 °F 54% 30.06 in 10.0 mi South 18.4 mph 21.9 mph N/A   Clear
12:55 PM 78.8 °F - 60.8 °F 54% 30.06 in 10.0 mi South 20.7 mph - N/A   Partly Cloudy
1:15 PM 78.8 °F - 62.6 °F 57% 30.06 in 10.0 mi South 15.0 mph 23.0 mph N/A   Scattered Clouds
1:35 PM 77.0 °F - 60.8 °F 57% 30.06 in 10.0 mi South 15.0 mph 24.2 mph N/A   Mostly Cloudy
1:55 PM 78.8 °F - 62.6 °F 57% 30.05 in 10.0 mi South 16.1 mph 21.9 mph N/A   Overcast
2:15 PM 78.8 °F - 62.6 °F 57% 30.05 in 10.0 mi South 17.3 mph 23.0 mph N/A   Mostly Cloudy
2:35 PM 78.8 °F - 64.4 °F 61% 30.04 in 10.0 mi SSE 16.1 mph 20.7 mph N/A   Mostly Cloudy
2:55 PM 78.8 °F - 62.6 °F 57% 30.04 in 10.0 mi SSE 18.4 mph 23.0 mph N/A   Scattered Clouds
3:15 PM 78.8 °F - 64.4 °F 61% 30.03 in 10.0 mi SSE 19.6 mph 23.0 mph N/A   Scattered Clouds
3:35 PM 78.8 °F - 64.4 °F 61% 30.02 in 10.0 mi SSE 18.4 mph 21.9 mph N/A   Scattered Clouds
3:55 PM 78.8 °F - 64.4 °F 61% 30.02 in 10.0 mi South 16.1 mph - N/A   Mostly Cloudy
4:15 PM 80.6 °F 82.3 °F 64.4 °F 58% 30.02 in 10.0 mi SSE 17.3 mph - N/A   Mostly Cloudy
4:35 PM 78.8 °F - 64.4 °F 61% 30.02 in 10.0 mi South 12.7 mph 18.4 mph N/A   Mostly Cloudy
4:55 PM 78.8 °F - 64.4 °F 61% 30.03 in 10.0 mi South 13.8 mph 20.7 mph N/A   Overcast
5:15 PM 78.8 °F - 64.4 °F 61% 30.03 in 10.0 mi South 10.4 mph - N/A   Overcast
5:35 PM 78.8 °F - 64.4 °F 61% 30.03 in 10.0 mi South 10.4 mph - N/A   Overcast
5:55 PM 78.8 °F - 64.4 °F 61% 30.03 in 10.0 mi South 10.4 mph - N/A   Overcast
6:15 PM 78.8 °F - 64.4 °F 61% 30.02 in 10.0 mi South 12.7 mph - N/A   Overcast
6:35 PM 78.8 °F - 64.4 °F 61% 30.02 in 10.0 mi SSE 8.1 mph - N/A   Overcast
6:55 PM 77.0 °F - 64.4 °F 65% 30.02 in 10.0 mi SSE 6.9 mph - N/A   Overcast
7:15 PM 75.2 °F - 64.4 °F 69% 30.01 in 10.0 mi SSE 10.4 mph - N/A   Overcast
7:35 PM 75.2 °F - 64.4 °F 69% 30.01 in 10.0 mi SSE 9.2 mph - N/A   Overcast
7:55 PM 75.2 °F - 64.4 °F 69% 30.01 in 10.0 mi SSE 8.1 mph - N/A   Overcast
8:15 PM 75.2 °F - 64.4 °F 69% 30.01 in 10.0 mi SSE 8.1 mph - N/A   Overcast
8:35 PM 73.4 °F - 64.4 °F 73% 30.01 in 10.0 mi SSE 6.9 mph - N/A   Overcast
8:55 PM 73.4 °F - 64.4 °F 73% 30.01 in 10.0 mi SSE 8.1 mph - N/A   Overcast
9:15 PM 73.4 °F - 64.4 °F 73% 30.01 in 10.0 mi SSE 9.2 mph - N/A   Overcast
9:35 PM 71.6 °F - 64.4 °F 78% 30.01 in 10.0 mi SE 9.2 mph - N/A   Mostly Cloudy
9:55 PM 69.8 °F - 64.4 °F 83% 30.01 in 10.0 mi SE 9.2 mph - N/A   Scattered Clouds
10:15 PM 69.8 °F - 64.4 °F 83% 30.01 in 10.0 mi SSE 11.5 mph - N/A   Clear
10:35 PM 69.8 °F - 62.6 °F 78% 30.01 in 10.0 mi SSE 11.5 mph - N/A   Clear
10:55 PM 69.8 °F - 62.6 °F 78% 30.01 in 10.0 mi SSE 12.7 mph - N/A   Clear
11:15 PM 69.8 °F - 62.6 °F 78% 30.01 in 10.0 mi SSE 11.5 mph - N/A   Clear
11:35 PM 69.8 °F - 62.6 °F 78% 30.00 in 10.0 mi SSE 15.0 mph 18.4 mph N/A   Clear
11:55 PM 69.8 °F - 62.6 °F 78% 29.99 in 10.0 mi South 12.7 mph - N/A   Clear